sensor_id;sensor_type;location;lat;lon;timestamp;P1;durP1;ratioP1;P2;durP2;ratioP2
50739;SDS011;36704;52.524;17.580;2023-11-19T00:03:17;40.63;;;17.95;;
50739;SDS011;36704;52.524;17.580;2023-11-19T00:08:39;40.67;;;18.30;;
50739;SDS011;36704;52.524;17.580;2023-11-19T00:14:03;43.78;;;18.58;;
50739;SDS011;36704;52.524;17.580;2023-11-19T00:24:55;64.55;;;22.95;;
50739;SDS011;36704;52.524;17.580;2023-11-19T00:30:16;46.00;;;20.67;;
50739;SDS011;36704;52.524;17.580;2023-11-19T00:35:37;40.83;;;18.30;;
50739;SDS011;36704;52.524;17.580;2023-11-19T00:41:06;50.50;;;19.48;;
50739;SDS011;36704;52.524;17.580;2023-11-19T00:46:36;49.15;;;19.77;;
50739;SDS011;36704;52.524;17.580;2023-11-19T00:52:08;45.05;;;18.10;;
50739;SDS011;36704;52.524;17.580;2023-11-19T00:57:35;49.65;;;19.85;;
50739;SDS011;36704;52.524;17.580;2023-11-19T01:03:08;50.50;;;20.23;;
50739;SDS011;36704;52.524;17.580;2023-11-19T01:08:29;47.90;;;18.90;;
50739;SDS011;36704;52.524;17.580;2023-11-19T01:13:57;39.35;;;16.70;;
50739;SDS011;36704;52.524;17.580;2023-11-19T01:19:20;40.75;;;18.08;;
50739;SDS011;36704;52.524;17.580;2023-11-19T01:24:46;46.45;;;19.00;;
50739;SDS011;36704;52.524;17.580;2023-11-19T01:30:08;44.88;;;17.23;;
50739;SDS011;36704;52.524;17.580;2023-11-19T01:35:34;32.78;;;15.07;;
50739;SDS011;36704;52.524;17.580;2023-11-19T01:41:03;36.35;;;15.20;;
50739;SDS011;36704;52.524;17.580;2023-11-19T01:46:31;36.78;;;16.10;;
50739;SDS011;36704;52.524;17.580;2023-11-19T01:51:57;38.53;;;15.57;;
50739;SDS011;36704;52.524;17.580;2023-11-19T01:57:22;27.60;;;13.10;;
50739;SDS011;36704;52.524;17.580;2023-11-19T02:02:53;34.97;;;15.18;;
50739;SDS011;36704;52.524;17.580;2023-11-19T02:08:16;36.17;;;15.07;;
50739;SDS011;36704;52.524;17.580;2023-11-19T02:13:40;34.53;;;14.17;;
50739;SDS011;36704;52.524;17.580;2023-11-19T02:19:02;37.17;;;14.43;;
50739;SDS011;36704;52.524;17.580;2023-11-19T02:24:25;35.88;;;14.10;;
50739;SDS011;36704;52.524;17.580;2023-11-19T02:29:48;30.13;;;12.27;;
50739;SDS011;36704;52.524;17.580;2023-11-19T02:35:14;25.35;;;12.10;;
50739;SDS011;36704;52.524;17.580;2023-11-19T02:40:38;27.00;;;12.40;;
50739;SDS011;36704;52.524;17.580;2023-11-19T02:46:02;28.25;;;12.50;;
50739;SDS011;36704;52.524;17.580;2023-11-19T02:51:33;34.72;;;12.38;;
50739;SDS011;36704;52.524;17.580;2023-11-19T02:56:58;22.92;;;10.65;;
50739;SDS011;36704;52.524;17.580;2023-11-19T03:02:22;26.10;;;11.55;;
50739;SDS011;36704;52.524;17.580;2023-11-19T03:07:46;31.08;;;12.93;;
50739;SDS011;36704;52.524;17.580;2023-11-19T03:13:12;25.30;;;11.10;;
50739;SDS011;36704;52.524;17.580;2023-11-19T03:18:43;26.70;;;11.73;;
50739;SDS011;36704;52.524;17.580;2023-11-19T03:24:04;28.65;;;12.68;;
50739;SDS011;36704;52.524;17.580;2023-11-19T03:29:26;29.38;;;12.32;;
50739;SDS011;36704;52.524;17.580;2023-11-19T03:34:46;29.90;;;11.80;;
50739;SDS011;36704;52.524;17.580;2023-11-19T03:40:08;29.02;;;12.95;;
50739;SDS011;36704;52.524;17.580;2023-11-19T03:45:29;32.33;;;13.40;;
50739;SDS011;36704;52.524;17.580;2023-11-19T03:50:50;31.55;;;12.18;;
50739;SDS011;36704;52.524;17.580;2023-11-19T03:56:11;31.27;;;12.82;;
50739;SDS011;36704;52.524;17.580;2023-11-19T04:01:32;31.20;;;13.70;;
50739;SDS011;36704;52.524;17.580;2023-11-19T04:06:53;27.38;;;13.05;;
50739;SDS011;36704;52.524;17.580;2023-11-19T04:12:14;28.98;;;13.65;;
50739;SDS011;36704;52.524;17.580;2023-11-19T04:17:36;31.15;;;13.55;;
50739;SDS011;36704;52.524;17.580;2023-11-19T04:22:57;37.00;;;14.18;;
50739;SDS011;36704;52.524;17.580;2023-11-19T04:28:21;33.78;;;13.27;;
50739;SDS011;36704;52.524;17.580;2023-11-19T04:33:43;31.33;;;13.90;;
50739;SDS011;36704;52.524;17.580;2023-11-19T04:39:04;32.58;;;14.07;;
50739;SDS011;36704;52.524;17.580;2023-11-19T04:44:32;35.55;;;14.73;;
50739;SDS011;36704;52.524;17.580;2023-11-19T04:49:53;29.95;;;12.13;;
50739;SDS011;36704;52.524;17.580;2023-11-19T04:55:14;29.35;;;12.43;;
50739;SDS011;36704;52.524;17.580;2023-11-19T05:00:35;30.00;;;13.93;;
50739;SDS011;36704;52.524;17.580;2023-11-19T05:05:56;36.03;;;14.23;;
50739;SDS011;36704;52.524;17.580;2023-11-19T05:11:18;35.87;;;14.50;;
50739;SDS011;36704;52.524;17.580;2023-11-19T05:22:02;30.50;;;12.40;;
50739;SDS011;36704;52.524;17.580;2023-11-19T05:27:26;28.73;;;12.50;;
50739;SDS011;36704;52.524;17.580;2023-11-19T05:32:48;34.75;;;13.63;;
50739;SDS011;36704;52.524;17.580;2023-11-19T05:38:08;27.83;;;13.43;;
50739;SDS011;36704;52.524;17.580;2023-11-19T05:43:31;29.70;;;13.20;;
50739;SDS011;36704;52.524;17.580;2023-11-19T05:48:52;32.40;;;12.43;;
50739;SDS011;36704;52.524;17.580;2023-11-19T05:54:13;31.10;;;12.93;;
50739;SDS011;36704;52.524;17.580;2023-11-19T05:59:34;29.35;;;13.57;;
50739;SDS011;36704;52.524;17.580;2023-11-19T06:04:57;64.78;;;20.35;;
50739;SDS011;36704;52.524;17.580;2023-11-19T06:10:18;74.47;;;20.83;;
50739;SDS011;36704;52.524;17.580;2023-11-19T06:15:44;64.88;;;18.55;;
50739;SDS011;36704;52.524;17.580;2023-11-19T06:21:05;70.18;;;18.88;;
50739;SDS011;36704;52.524;17.580;2023-11-19T06:26:26;39.15;;;14.55;;
50739;SDS011;36704;52.524;17.580;2023-11-19T06:31:48;39.42;;;15.23;;
50739;SDS011;36704;52.524;17.580;2023-11-19T06:37:09;32.73;;;14.17;;
50739;SDS011;36704;52.524;17.580;2023-11-19T06:42:30;33.47;;;14.10;;
50739;SDS011;36704;52.524;17.580;2023-11-19T06:47:51;39.28;;;15.15;;
50739;SDS011;36704;52.524;17.580;2023-11-19T06:53:12;44.83;;;15.27;;
50739;SDS011;36704;52.524;17.580;2023-11-19T06:58:36;32.05;;;13.77;;
50739;SDS011;36704;52.524;17.580;2023-11-19T07:04:00;34.40;;;13.35;;
50739;SDS011;36704;52.524;17.580;2023-11-19T07:09:22;37.90;;;15.05;;
50739;SDS011;36704;52.524;17.580;2023-11-19T07:14:44;45.50;;;17.05;;
50739;SDS011;36704;52.524;17.580;2023-11-19T07:20:05;33.97;;;13.48;;
50739;SDS011;36704;52.524;17.580;2023-11-19T07:25:29;50.42;;;17.08;;
50739;SDS011;36704;52.524;17.580;2023-11-19T07:30:51;36.28;;;14.48;;
50739;SDS011;36704;52.524;17.580;2023-11-19T07:36:12;35.38;;;15.07;;
50739;SDS011;36704;52.524;17.580;2023-11-19T07:41:33;32.87;;;14.23;;
50739;SDS011;36704;52.524;17.580;2023-11-19T07:46:58;38.05;;;14.05;;
50739;SDS011;36704;52.524;17.580;2023-11-19T07:52:19;30.83;;;13.45;;
50739;SDS011;36704;52.524;17.580;2023-11-19T07:57:42;33.67;;;13.32;;
50739;SDS011;36704;52.524;17.580;2023-11-19T08:03:03;31.27;;;13.02;;
50739;SDS011;36704;52.524;17.580;2023-11-19T08:13:46;31.05;;;12.95;;
50739;SDS011;36704;52.524;17.580;2023-11-19T08:19:07;31.30;;;16.00;;
50739;SDS011;36704;52.524;17.580;2023-11-19T08:24:29;29.52;;;14.80;;
50739;SDS011;36704;52.524;17.580;2023-11-19T08:29:51;29.33;;;12.65;;
50739;SDS011;36704;52.524;17.580;2023-11-19T08:35:13;36.03;;;16.45;;
50739;SDS011;36704;52.524;17.580;2023-11-19T08:40:34;82.55;;;30.00;;
50739;SDS011;36704;52.524;17.580;2023-11-19T08:45:55;59.58;;;22.98;;
50739;SDS011;36704;52.524;17.580;2023-11-19T08:51:16;86.43;;;30.43;;
50739;SDS011;36704;52.524;17.580;2023-11-19T08:56:39;52.88;;;20.48;;
50739;SDS011;36704;52.524;17.580;2023-11-19T09:02:00;38.30;;;17.65;;
50739;SDS011;36704;52.524;17.580;2023-11-19T09:07:25;30.25;;;13.65;;
50739;SDS011;36704;52.524;17.580;2023-11-19T09:12:51;47.08;;;19.38;;
50739;SDS011;36704;52.524;17.580;2023-11-19T09:18:16;32.72;;;16.05;;
50739;SDS011;36704;52.524;17.580;2023-11-19T09:23:38;128.93;;;30.97;;
50739;SDS011;36704;52.524;17.580;2023-11-19T09:34:21;47.42;;;19.95;;
50739;SDS011;36704;52.524;17.580;2023-11-19T09:39:43;42.97;;;17.23;;
50739;SDS011;36704;52.524;17.580;2023-11-19T09:45:04;42.00;;;18.67;;
50739;SDS011;36704;52.524;17.580;2023-11-19T09:50:36;35.63;;;14.90;;
50739;SDS011;36704;52.524;17.580;2023-11-19T09:55:57;49.67;;;18.87;;
50739;SDS011;36704;52.524;17.580;2023-11-19T10:01:23;42.58;;;16.73;;
50739;SDS011;36704;52.524;17.580;2023-11-19T10:06:52;51.10;;;20.02;;
50739;SDS011;36704;52.524;17.580;2023-11-19T10:12:17;62.83;;;23.13;;
50739;SDS011;36704;52.524;17.580;2023-11-19T10:17:41;49.80;;;18.50;;
50739;SDS011;36704;52.524;17.580;2023-11-19T10:23:03;48.03;;;17.57;;
50739;SDS011;36704;52.524;17.580;2023-11-19T10:28:24;51.37;;;19.60;;
50739;SDS011;36704;52.524;17.580;2023-11-19T10:33:45;74.88;;;23.45;;
50739;SDS011;36704;52.524;17.580;2023-11-19T10:39:07;56.67;;;22.33;;
50739;SDS011;36704;52.524;17.580;2023-11-19T10:44:33;58.58;;;22.50;;
50739;SDS011;36704;52.524;17.580;2023-11-19T10:49:56;59.13;;;24.15;;
50739;SDS011;36704;52.524;17.580;2023-11-19T10:55:17;54.17;;;22.52;;
50739;SDS011;36704;52.524;17.580;2023-11-19T11:00:48;65.50;;;24.92;;
50739;SDS011;36704;52.524;17.580;2023-11-19T11:06:12;70.47;;;30.27;;
50739;SDS011;36704;52.524;17.580;2023-11-19T11:11:34;52.90;;;24.77;;
50739;SDS011;36704;52.524;17.580;2023-11-19T11:16:55;56.33;;;24.92;;
50739;SDS011;36704;52.524;17.580;2023-11-19T11:22:17;79.43;;;32.13;;
50739;SDS011;36704;52.524;17.580;2023-11-19T11:33:36;69.95;;;30.27;;
50739;SDS011;36704;52.524;17.580;2023-11-19T11:39:25;65.97;;;26.05;;
50739;SDS011;36704;52.524;17.580;2023-11-19T11:45:06;40.92;;;18.98;;
50739;SDS011;36704;52.524;17.580;2023-11-19T11:50:31;58.28;;;29.63;;
50739;SDS011;36704;52.524;17.580;2023-11-19T12:01:20;69.25;;;30.05;;
50739;SDS011;36704;52.524;17.580;2023-11-19T12:06:41;40.15;;;18.40;;
50739;SDS011;36704;52.524;17.580;2023-11-19T12:12:12;39.92;;;17.63;;
50739;SDS011;36704;52.524;17.580;2023-11-19T12:22:54;42.42;;;19.42;;
50739;SDS011;36704;52.524;17.580;2023-11-19T12:28:16;41.97;;;17.43;;
50739;SDS011;36704;52.524;17.580;2023-11-19T12:33:40;58.05;;;24.85;;
50739;SDS011;36704;52.524;17.580;2023-11-19T12:39:03;47.53;;;18.38;;
50739;SDS011;36704;52.524;17.580;2023-11-19T12:44:25;48.25;;;20.15;;
50739;SDS011;36704;52.524;17.580;2023-11-19T12:50:07;40.33;;;16.97;;
50739;SDS011;36704;52.524;17.580;2023-11-19T12:55:29;35.15;;;15.90;;
50739;SDS011;36704;52.524;17.580;2023-11-19T13:00:51;33.92;;;14.85;;
50739;SDS011;36704;52.524;17.580;2023-11-19T13:06:24;42.40;;;18.55;;
50739;SDS011;36704;52.524;17.580;2023-11-19T13:11:45;38.38;;;19.48;;
50739;SDS011;36704;52.524;17.580;2023-11-19T13:22:29;54.70;;;23.83;;
50739;SDS011;36704;52.524;17.580;2023-11-19T13:27:51;55.77;;;22.67;;
50739;SDS011;36704;52.524;17.580;2023-11-19T13:33:12;138.68;;;37.97;;
50739;SDS011;36704;52.524;17.580;2023-11-19T13:38:34;94.75;;;36.05;;
50739;SDS011;36704;52.524;17.580;2023-11-19T13:43:58;138.50;;;54.92;;
50739;SDS011;36704;52.524;17.580;2023-11-19T13:49:19;79.80;;;27.20;;
50739;SDS011;36704;52.524;17.580;2023-11-19T13:54:42;38.08;;;18.85;;
50739;SDS011;36704;52.524;17.580;2023-11-19T14:00:04;68.25;;;26.45;;
50739;SDS011;36704;52.524;17.580;2023-11-19T14:05:28;64.20;;;26.77;;
50739;SDS011;36704;52.524;17.580;2023-11-19T14:10:52;47.05;;;22.27;;
50739;SDS011;36704;52.524;17.580;2023-11-19T14:16:16;35.92;;;17.38;;
50739;SDS011;36704;52.524;17.580;2023-11-19T14:21:37;96.95;;;36.90;;
50739;SDS011;36704;52.524;17.580;2023-11-19T14:26:58;69.05;;;27.75;;
50739;SDS011;36704;52.524;17.580;2023-11-19T14:32:20;248.20;;;67.80;;
50739;SDS011;36704;52.524;17.580;2023-11-19T14:37:40;135.13;;;44.92;;
50739;SDS011;36704;52.524;17.580;2023-11-19T14:43:01;103.43;;;43.58;;
50739;SDS011;36704;52.524;17.580;2023-11-19T14:48:23;81.15;;;36.50;;
50739;SDS011;36704;52.524;17.580;2023-11-19T14:53:44;72.13;;;33.15;;
50739;SDS011;36704;52.524;17.580;2023-11-19T14:59:05;50.53;;;26.60;;
50739;SDS011;36704;52.524;17.580;2023-11-19T15:04:30;52.90;;;23.70;;
50739;SDS011;36704;52.524;17.580;2023-11-19T15:09:50;99.28;;;35.22;;
50739;SDS011;36704;52.524;17.580;2023-11-19T15:15:11;73.40;;;27.38;;
50739;SDS011;36704;52.524;17.580;2023-11-19T15:20:35;50.90;;;20.60;;
50739;SDS011;36704;52.524;17.580;2023-11-19T15:25:57;65.72;;;28.67;;
50739;SDS011;36704;52.524;17.580;2023-11-19T15:31:18;60.70;;;25.52;;
50739;SDS011;36704;52.524;17.580;2023-11-19T15:36:39;50.33;;;22.70;;
50739;SDS011;36704;52.524;17.580;2023-11-19T15:42:00;67.03;;;22.30;;
50739;SDS011;36704;52.524;17.580;2023-11-19T15:47:21;59.38;;;24.98;;
50739;SDS011;36704;52.524;17.580;2023-11-19T15:52:42;58.70;;;25.45;;
50739;SDS011;36704;52.524;17.580;2023-11-19T15:58:04;67.53;;;27.67;;
50739;SDS011;36704;52.524;17.580;2023-11-19T16:03:25;73.78;;;27.80;;
50739;SDS011;36704;52.524;17.580;2023-11-19T16:08:47;89.32;;;30.27;;
50739;SDS011;36704;52.524;17.580;2023-11-19T16:14:09;50.13;;;22.53;;
50739;SDS011;36704;52.524;17.580;2023-11-19T16:19:31;100.75;;;41.50;;
50739;SDS011;36704;52.524;17.580;2023-11-19T16:24:52;155.50;;;52.80;;
50739;SDS011;36704;52.524;17.580;2023-11-19T16:30:14;66.20;;;29.52;;
50739;SDS011;36704;52.524;17.580;2023-11-19T16:35:35;58.80;;;25.92;;
50739;SDS011;36704;52.524;17.580;2023-11-19T16:40:57;99.00;;;37.88;;
50739;SDS011;36704;52.524;17.580;2023-11-19T16:46:19;202.00;;;70.80;;
50739;SDS011;36704;52.524;17.580;2023-11-19T16:51:44;180.05;;;56.15;;
50739;SDS011;36704;52.524;17.580;2023-11-19T17:02:27;226.07;;;68.90;;
50739;SDS011;36704;52.524;17.580;2023-11-19T17:07:50;183.13;;;59.55;;
50739;SDS011;36704;52.524;17.580;2023-11-19T17:13:11;150.65;;;49.92;;
50739;SDS011;36704;52.524;17.580;2023-11-19T17:18:32;143.77;;;46.00;;
50739;SDS011;36704;52.524;17.580;2023-11-19T17:23:53;137.10;;;48.15;;
50739;SDS011;36704;52.524;17.580;2023-11-19T17:29:15;120.28;;;47.78;;
50739;SDS011;36704;52.524;17.580;2023-11-19T17:34:38;123.70;;;39.20;;
50739;SDS011;36704;52.524;17.580;2023-11-19T17:39:58;101.07;;;37.78;;
50739;SDS011;36704;52.524;17.580;2023-11-19T17:45:20;106.85;;;34.88;;
50739;SDS011;36704;52.524;17.580;2023-11-19T17:50:41;79.27;;;31.77;;
50739;SDS011;36704;52.524;17.580;2023-11-19T17:56:02;92.93;;;31.90;;
50739;SDS011;36704;52.524;17.580;2023-11-19T18:01:26;127.18;;;38.88;;
50739;SDS011;36704;52.524;17.580;2023-11-19T18:06:48;184.93;;;63.47;;
50739;SDS011;36704;52.524;17.580;2023-11-19T18:12:09;273.92;;;77.20;;
50739;SDS011;36704;52.524;17.580;2023-11-19T18:17:36;306.55;;;109.82;;
50739;SDS011;36704;52.524;17.580;2023-11-19T18:23:02;225.20;;;68.28;;
50739;SDS011;36704;52.524;17.580;2023-11-19T18:28:24;203.50;;;68.32;;
50739;SDS011;36704;52.524;17.580;2023-11-19T18:39:08;99.25;;;34.45;;
50739;SDS011;36704;52.524;17.580;2023-11-19T18:44:33;108.25;;;37.60;;
50739;SDS011;36704;52.524;17.580;2023-11-19T18:49:54;157.43;;;54.50;;
50739;SDS011;36704;52.524;17.580;2023-11-19T18:55:15;132.82;;;48.42;;
50739;SDS011;36704;52.524;17.580;2023-11-19T19:00:36;110.97;;;39.72;;
50739;SDS011;36704;52.524;17.580;2023-11-19T19:05:57;154.27;;;50.67;;
50739;SDS011;36704;52.524;17.580;2023-11-19T19:11:19;159.75;;;52.65;;
50739;SDS011;36704;52.524;17.580;2023-11-19T19:16:40;106.13;;;38.92;;
50739;SDS011;36704;52.524;17.580;2023-11-19T19:22:01;119.68;;;41.80;;
50739;SDS011;36704;52.524;17.580;2023-11-19T19:27:23;55.80;;;23.90;;
50739;SDS011;36704;52.524;17.580;2023-11-19T19:32:44;47.15;;;19.95;;
50739;SDS011;36704;52.524;17.580;2023-11-19T19:38:06;66.55;;;22.65;;
50739;SDS011;36704;52.524;17.580;2023-11-19T19:43:31;57.08;;;19.27;;
50739;SDS011;36704;52.524;17.580;2023-11-19T19:48:52;46.13;;;18.73;;
50739;SDS011;36704;52.524;17.580;2023-11-19T19:54:14;44.38;;;20.83;;
50739;SDS011;36704;52.524;17.580;2023-11-19T19:59:35;42.35;;;18.95;;
50739;SDS011;36704;52.524;17.580;2023-11-19T20:04:57;37.20;;;15.60;;
50739;SDS011;36704;52.524;17.580;2023-11-19T20:10:18;27.63;;;13.50;;
50739;SDS011;36704;52.524;17.580;2023-11-19T20:15:41;39.92;;;14.98;;
50739;SDS011;36704;52.524;17.580;2023-11-19T20:21:04;35.22;;;13.07;;
50739;SDS011;36704;52.524;17.580;2023-11-19T20:26:29;37.38;;;15.38;;
50739;SDS011;36704;52.524;17.580;2023-11-19T20:31:50;38.05;;;13.95;;
50739;SDS011;36704;52.524;17.580;2023-11-19T20:37:11;34.40;;;13.77;;
50739;SDS011;36704;52.524;17.580;2023-11-19T20:42:32;35.95;;;15.00;;
50739;SDS011;36704;52.524;17.580;2023-11-19T20:47:55;30.88;;;13.25;;
50739;SDS011;36704;52.524;17.580;2023-11-19T20:53:16;34.85;;;11.68;;
50739;SDS011;36704;52.524;17.580;2023-11-19T20:58:39;32.75;;;11.75;;
50739;SDS011;36704;52.524;17.580;2023-11-19T21:04:00;32.22;;;11.60;;
50739;SDS011;36704;52.524;17.580;2023-11-19T21:09:22;32.22;;;12.98;;
50739;SDS011;36704;52.524;17.580;2023-11-19T21:14:53;36.33;;;11.73;;
50739;SDS011;36704;52.524;17.580;2023-11-19T21:20:14;38.38;;;13.13;;
50739;SDS011;36704;52.524;17.580;2023-11-19T21:25:36;57.13;;;16.60;;
50739;SDS011;36704;52.524;17.580;2023-11-19T21:30:58;29.23;;;10.55;;
50739;SDS011;36704;52.524;17.580;2023-11-19T21:36:20;23.98;;;10.02;;
50739;SDS011;36704;52.524;17.580;2023-11-19T21:41:42;25.77;;;10.70;;
50739;SDS011;36704;52.524;17.580;2023-11-19T21:47:03;32.13;;;11.45;;
50739;SDS011;36704;52.524;17.580;2023-11-19T21:52:27;21.85;;;9.10;;
50739;SDS011;36704;52.524;17.580;2023-11-19T21:57:48;25.70;;;9.77;;
50739;SDS011;36704;52.524;17.580;2023-11-19T22:08:32;27.30;;;8.60;;
50739;SDS011;36704;52.524;17.580;2023-11-19T22:13:54;34.30;;;9.33;;
50739;SDS011;36704;52.524;17.580;2023-11-19T22:19:16;25.42;;;8.65;;
50739;SDS011;36704;52.524;17.580;2023-11-19T22:24:37;31.13;;;10.27;;
50739;SDS011;36704;52.524;17.580;2023-11-19T22:29:59;26.08;;;8.48;;
50739;SDS011;36704;52.524;17.580;2023-11-19T22:35:20;27.15;;;9.25;;
50739;SDS011;36704;52.524;17.580;2023-11-19T22:40:42;30.35;;;8.95;;
50739;SDS011;36704;52.524;17.580;2023-11-19T22:46:05;24.90;;;8.95;;
50739;SDS011;36704;52.524;17.580;2023-11-19T22:51:28;28.23;;;8.18;;
50739;SDS011;36704;52.524;17.580;2023-11-19T22:56:50;23.73;;;7.70;;
50739;SDS011;36704;52.524;17.580;2023-11-19T23:02:11;28.13;;;8.60;;
50739;SDS011;36704;52.524;17.580;2023-11-19T23:07:34;21.40;;;7.57;;
50739;SDS011;36704;52.524;17.580;2023-11-19T23:12:55;27.50;;;8.27;;
50739;SDS011;36704;52.524;17.580;2023-11-19T23:18:20;21.27;;;7.47;;
50739;SDS011;36704;52.524;17.580;2023-11-19T23:23:42;17.05;;;7.85;;
50739;SDS011;36704;52.524;17.580;2023-11-19T23:29:04;21.73;;;7.47;;
50739;SDS011;36704;52.524;17.580;2023-11-19T23:34:35;24.47;;;7.63;;
50739;SDS011;36704;52.524;17.580;2023-11-19T23:40:00;23.45;;;7.47;;
50739;SDS011;36704;52.524;17.580;2023-11-19T23:45:21;20.67;;;7.25;;
50739;SDS011;36704;52.524;17.580;2023-11-19T23:50:43;22.58;;;7.32;;
50739;SDS011;36704;52.524;17.580;2023-11-19T23:56:07;19.35;;;7.05;;
